sensor_id;sensor_type;location;lat;lon;timestamp;P1;durP1;ratioP1;P2;durP2;ratioP2
62256;SDS011;48240;52.962;5.790;2023-11-22T03:52:31;2.40;;;2.20;;
62256;SDS011;48240;52.962;5.790;2023-11-22T03:54:57;3.17;;;2.47;;
62256;SDS011;48240;52.962;5.790;2023-11-22T03:57:23;3.08;;;2.53;;
62256;SDS011;48240;52.962;5.790;2023-11-22T03:59:49;4.45;;;2.97;;
62256;SDS011;48240;52.962;5.790;2023-11-22T04:02:16;3.00;;;2.30;;
62256;SDS011;48240;52.962;5.790;2023-11-22T04:04:43;3.78;;;2.78;;
62256;SDS011;48240;52.962;5.790;2023-11-22T04:07:10;3.03;;;2.35;;
62256;SDS011;48240;52.962;5.790;2023-11-22T04:09:36;3.85;;;2.20;;
62256;SDS011;48240;52.962;5.790;2023-11-22T04:12:03;3.13;;;2.40;;
62256;SDS011;48240;52.962;5.790;2023-11-22T04:14:29;3.80;;;2.45;;
62256;SDS011;48240;52.962;5.790;2023-11-22T04:16:55;4.55;;;2.50;;
62256;SDS011;48240;52.962;5.790;2023-11-22T04:19:21;3.20;;;2.40;;
62256;SDS011;48240;52.962;5.790;2023-11-22T04:21:47;3.00;;;2.22;;
62256;SDS011;48240;52.962;5.790;2023-11-22T04:24:14;3.47;;;2.67;;
62256;SDS011;48240;52.962;5.790;2023-11-22T04:26:40;3.53;;;2.53;;
62256;SDS011;48240;52.962;5.790;2023-11-22T04:29:06;2.95;;;2.40;;
62256;SDS011;48240;52.962;5.790;2023-11-22T04:31:32;3.13;;;2.45;;
62256;SDS011;48240;52.962;5.790;2023-11-22T04:33:58;2.88;;;2.47;;
62256;SDS011;48240;52.962;5.790;2023-11-22T04:36:25;3.75;;;2.60;;
62256;SDS011;48240;52.962;5.790;2023-11-22T04:38:51;3.35;;;2.40;;
62256;SDS011;48240;52.962;5.790;2023-11-22T04:41:17;2.65;;;2.25;;
62256;SDS011;48240;52.962;5.790;2023-11-22T04:43:43;3.00;;;2.25;;
62256;SDS011;48240;52.962;5.790;2023-11-22T04:46:12;3.22;;;2.42;;
62256;SDS011;48240;52.962;5.790;2023-11-22T04:48:38;3.30;;;2.55;;
62256;SDS011;48240;52.962;5.790;2023-11-22T04:51:05;2.83;;;2.20;;
62256;SDS011;48240;52.962;5.790;2023-11-22T04:53:31;4.43;;;2.63;;
62256;SDS011;48240;52.962;5.790;2023-11-22T04:55:57;3.05;;;2.20;;
62256;SDS011;48240;52.962;5.790;2023-11-22T04:58:24;4.47;;;2.70;;
62256;SDS011;48240;52.962;5.790;2023-11-22T05:00:50;3.33;;;2.65;;
62256;SDS011;48240;52.962;5.790;2023-11-22T05:03:16;3.15;;;2.60;;
62256;SDS011;48240;52.962;5.790;2023-11-22T05:05:43;3.95;;;2.65;;
62256;SDS011;48240;52.962;5.790;2023-11-22T05:08:10;3.40;;;2.80;;
62256;SDS011;48240;52.962;5.790;2023-11-22T05:10:36;3.75;;;2.85;;
62256;SDS011;48240;52.962;5.790;2023-11-22T05:13:02;3.08;;;2.50;;
62256;SDS011;48240;52.962;5.790;2023-11-22T05:15:29;4.13;;;2.90;;
62256;SDS011;48240;52.962;5.790;2023-11-22T05:17:55;3.83;;;3.13;;
62256;SDS011;48240;52.962;5.790;2023-11-22T05:20:21;4.03;;;3.15;;
62256;SDS011;48240;52.962;5.790;2023-11-22T05:22:47;5.50;;;3.30;;
62256;SDS011;48240;52.962;5.790;2023-11-22T05:25:13;3.42;;;3.13;;
62256;SDS011;48240;52.962;5.790;2023-11-22T05:27:39;3.75;;;2.90;;
62256;SDS011;48240;52.962;5.790;2023-11-22T05:30:05;3.15;;;2.65;;
62256;SDS011;48240;52.962;5.790;2023-11-22T05:32:31;4.05;;;2.95;;
62256;SDS011;48240;52.962;5.790;2023-11-22T05:34:58;3.53;;;2.72;;
62256;SDS011;48240;52.962;5.790;2023-11-22T05:37:24;5.10;;;2.88;;
62256;SDS011;48240;52.962;5.790;2023-11-22T05:39:50;3.40;;;2.72;;
62256;SDS011;48240;52.962;5.790;2023-11-22T05:42:16;3.53;;;2.42;;
62256;SDS011;48240;52.962;5.790;2023-11-22T05:44:43;2.90;;;2.53;;
62256;SDS011;48240;52.962;5.790;2023-11-22T05:47:09;3.35;;;2.42;;
62256;SDS011;48240;52.962;5.790;2023-11-22T05:49:35;3.35;;;2.25;;
62256;SDS011;48240;52.962;5.790;2023-11-22T05:52:01;3.17;;;2.33;;
62256;SDS011;48240;52.962;5.790;2023-11-22T05:54:27;2.55;;;1.83;;
62256;SDS011;48240;52.962;5.790;2023-11-22T05:56:54;2.05;;;1.85;;
62256;SDS011;48240;52.962;5.790;2023-11-22T05:59:21;2.63;;;2.15;;
62256;SDS011;48240;52.962;5.790;2023-11-22T06:01:48;3.05;;;2.20;;
62256;SDS011;48240;52.962;5.790;2023-11-22T06:04:14;2.78;;;2.05;;
62256;SDS011;48240;52.962;5.790;2023-11-22T06:06:41;2.90;;;2.00;;
62256;SDS011;48240;52.962;5.790;2023-11-22T06:09:07;2.20;;;1.60;;
62256;SDS011;48240;52.962;5.790;2023-11-22T06:11:35;2.85;;;2.10;;
62256;SDS011;48240;52.962;5.790;2023-11-22T06:14:01;2.88;;;2.17;;
62256;SDS011;48240;52.962;5.790;2023-11-22T06:16:27;2.28;;;1.98;;
62256;SDS011;48240;52.962;5.790;2023-11-22T06:18:53;3.88;;;2.30;;
62256;SDS011;48240;52.962;5.790;2023-11-22T06:21:19;3.72;;;2.60;;
62256;SDS011;48240;52.962;5.790;2023-11-22T06:23:46;3.67;;;2.80;;
62256;SDS011;48240;52.962;5.790;2023-11-22T06:26:12;3.58;;;2.75;;
62256;SDS011;48240;52.962;5.790;2023-11-22T06:28:39;2.30;;;2.05;;
62256;SDS011;48240;52.962;5.790;2023-11-22T06:31:05;5.40;;;2.45;;
62256;SDS011;48240;52.962;5.790;2023-11-22T06:33:33;3.53;;;2.33;;
62256;SDS011;48240;52.962;5.790;2023-11-22T06:36:00;3.72;;;2.33;;
62256;SDS011;48240;52.962;5.790;2023-11-22T06:38:26;3.22;;;2.38;;
62256;SDS011;48240;52.962;5.790;2023-11-22T06:40:53;3.42;;;2.08;;
62256;SDS011;48240;52.962;5.790;2023-11-22T06:43:19;4.32;;;2.42;;
62256;SDS011;48240;52.962;5.790;2023-11-22T06:45:45;3.55;;;2.63;;
62256;SDS011;48240;52.962;5.790;2023-11-22T06:48:11;2.90;;;2.20;;
62256;SDS011;48240;52.962;5.790;2023-11-22T06:50:37;3.35;;;2.50;;
62256;SDS011;48240;52.962;5.790;2023-11-22T06:53:04;3.20;;;2.00;;
62256;SDS011;48240;52.962;5.790;2023-11-22T06:55:31;3.13;;;2.40;;
62256;SDS011;48240;52.962;5.790;2023-11-22T06:57:58;3.28;;;2.80;;
62256;SDS011;48240;52.962;5.790;2023-11-22T07:00:24;3.97;;;2.47;;
62256;SDS011;48240;52.962;5.790;2023-11-22T07:02:53;2.50;;;2.10;;
62256;SDS011;48240;52.962;5.790;2023-11-22T07:05:19;3.38;;;2.03;;
62256;SDS011;48240;52.962;5.790;2023-11-22T07:07:45;4.38;;;2.30;;
62256;SDS011;48240;52.962;5.790;2023-11-22T07:10:14;3.38;;;2.83;;
62256;SDS011;48240;52.962;5.790;2023-11-22T07:12:41;3.33;;;2.50;;
62256;SDS011;48240;52.962;5.790;2023-11-22T07:15:08;5.35;;;2.33;;
62256;SDS011;48240;52.962;5.790;2023-11-22T07:17:35;2.47;;;2.20;;
62256;SDS011;48240;52.962;5.790;2023-11-22T07:20:01;3.08;;;2.50;;
62256;SDS011;48240;52.962;5.790;2023-11-22T07:22:27;3.42;;;2.20;;
62256;SDS011;48240;52.962;5.790;2023-11-22T07:24:55;2.53;;;2.05;;
62256;SDS011;48240;52.962;5.790;2023-11-22T07:27:25;4.85;;;2.30;;
62256;SDS011;48240;52.962;5.790;2023-11-22T07:29:51;3.03;;;2.35;;
62256;SDS011;48240;52.962;5.790;2023-11-22T07:32:17;3.38;;;2.50;;
62256;SDS011;48240;52.962;5.790;2023-11-22T07:34:45;4.80;;;2.92;;
62256;SDS011;48240;52.962;5.790;2023-11-22T07:37:12;2.78;;;2.40;;
62256;SDS011;48240;52.962;5.790;2023-11-22T07:39:40;3.75;;;2.70;;
62256;SDS011;48240;52.962;5.790;2023-11-22T07:42:08;3.58;;;2.50;;
62256;SDS011;48240;52.962;5.790;2023-11-22T07:44:34;3.10;;;2.53;;
62256;SDS011;48240;52.962;5.790;2023-11-22T07:47:04;3.13;;;2.30;;
62256;SDS011;48240;52.962;5.790;2023-11-22T07:49:38;3.65;;;2.60;;
62256;SDS011;48240;52.962;5.790;2023-11-22T07:52:04;3.72;;;2.65;;
62256;SDS011;48240;52.962;5.790;2023-11-22T07:54:31;3.75;;;2.70;;
62256;SDS011;48240;52.962;5.790;2023-11-22T07:56:57;4.40;;;2.88;;
62256;SDS011;48240;52.962;5.790;2023-11-22T07:59:23;5.15;;;3.08;;
62256;SDS011;48240;52.962;5.790;2023-11-22T08:01:49;4.30;;;2.80;;
62256;SDS011;48240;52.962;5.790;2023-11-22T08:04:16;4.40;;;2.67;;
62256;SDS011;48240;52.962;5.790;2023-11-22T08:06:42;4.75;;;3.33;;
62256;SDS011;48240;52.962;5.790;2023-11-22T08:09:08;4.70;;;2.80;;
62256;SDS011;48240;52.962;5.790;2023-11-22T08:11:35;3.90;;;2.60;;
62256;SDS011;48240;52.962;5.790;2023-11-22T08:14:01;5.35;;;3.55;;
62256;SDS011;48240;52.962;5.790;2023-11-22T08:16:28;3.60;;;2.80;;
62256;SDS011;48240;52.962;5.790;2023-11-22T08:18:54;4.07;;;3.00;;
62256;SDS011;48240;52.962;5.790;2023-11-22T08:21:21;4.40;;;2.88;;
62256;SDS011;48240;52.962;5.790;2023-11-22T08:23:48;4.30;;;3.30;;
62256;SDS011;48240;52.962;5.790;2023-11-22T08:26:14;4.45;;;2.80;;
62256;SDS011;48240;52.962;5.790;2023-11-22T08:28:40;4.65;;;3.08;;
62256;SDS011;48240;52.962;5.790;2023-11-22T08:31:07;3.60;;;2.85;;
62256;SDS011;48240;52.962;5.790;2023-11-22T08:33:36;4.78;;;3.22;;
62256;SDS011;48240;52.962;5.790;2023-11-22T08:36:03;4.30;;;3.00;;
62256;SDS011;48240;52.962;5.790;2023-11-22T08:38:30;3.88;;;2.67;;
62256;SDS011;48240;52.962;5.790;2023-11-22T08:41:05;3.80;;;3.00;;
62256;SDS011;48240;52.962;5.790;2023-11-22T08:43:31;3.88;;;2.67;;
62256;SDS011;48240;52.962;5.790;2023-11-22T08:45:58;4.00;;;3.08;;
62256;SDS011;48240;52.962;5.790;2023-11-22T08:48:25;3.60;;;2.80;;
62256;SDS011;48240;52.962;5.790;2023-11-22T08:50:51;5.95;;;3.10;;
62256;SDS011;48240;52.962;5.790;2023-11-22T08:53:19;5.40;;;3.72;;
62256;SDS011;48240;52.962;5.790;2023-11-22T08:55:46;4.53;;;3.00;;
62256;SDS011;48240;52.962;5.790;2023-11-22T08:58:12;5.32;;;3.33;;
62256;SDS011;48240;52.962;5.790;2023-11-22T09:00:38;3.90;;;3.15;;
62256;SDS011;48240;52.962;5.790;2023-11-22T09:03:06;5.18;;;3.38;;
62256;SDS011;48240;52.962;5.790;2023-11-22T09:05:33;4.63;;;3.08;;
62256;SDS011;48240;52.962;5.790;2023-11-22T09:07:59;3.95;;;3.38;;
62256;SDS011;48240;52.962;5.790;2023-11-22T09:10:25;5.22;;;3.40;;
62256;SDS011;48240;52.962;5.790;2023-11-22T09:12:52;3.42;;;2.90;;
62256;SDS011;48240;52.962;5.790;2023-11-22T09:15:18;4.80;;;3.13;;
62256;SDS011;48240;52.962;5.790;2023-11-22T09:17:51;4.22;;;2.85;;
62256;SDS011;48240;52.962;5.790;2023-11-22T09:20:19;4.22;;;2.72;;
62256;SDS011;48240;52.962;5.790;2023-11-22T09:22:45;5.57;;;3.65;;
62256;SDS011;48240;52.962;5.790;2023-11-22T09:25:19;5.43;;;3.60;;
62256;SDS011;48240;52.962;5.790;2023-11-22T09:27:46;4.57;;;3.30;;
62256;SDS011;48240;52.962;5.790;2023-11-22T09:30:14;3.42;;;2.80;;
62256;SDS011;48240;52.962;5.790;2023-11-22T09:35:30;4.60;;;2.90;;
62256;SDS011;48240;52.962;5.790;2023-11-22T09:38:00;3.75;;;2.65;;
62256;SDS011;48240;52.962;5.790;2023-11-22T09:40:27;3.42;;;2.72;;
62256;SDS011;48240;52.962;5.790;2023-11-22T09:42:55;4.80;;;3.00;;
62256;SDS011;48240;52.962;5.790;2023-11-22T09:45:23;3.17;;;2.67;;
62256;SDS011;48240;52.962;5.790;2023-11-22T09:47:50;3.83;;;2.63;;
62256;SDS011;48240;52.962;5.790;2023-11-22T09:50:20;4.85;;;2.92;;
62256;SDS011;48240;52.962;5.790;2023-11-22T09:52:50;5.50;;;2.90;;
62256;SDS011;48240;52.962;5.790;2023-11-22T09:55:22;4.32;;;3.25;;
62256;SDS011;48240;52.962;5.790;2023-11-22T09:57:51;4.07;;;3.28;;
62256;SDS011;48240;52.962;5.790;2023-11-22T10:00:18;4.45;;;2.80;;
62256;SDS011;48240;52.962;5.790;2023-11-22T10:02:47;5.40;;;2.95;;
62256;SDS011;48240;52.962;5.790;2023-11-22T10:05:13;4.63;;;2.70;;
62256;SDS011;48240;52.962;5.790;2023-11-22T10:07:39;3.58;;;2.95;;
62256;SDS011;48240;52.962;5.790;2023-11-22T10:10:05;4.45;;;2.80;;
62256;SDS011;48240;52.962;5.790;2023-11-22T10:12:32;4.97;;;3.20;;
62256;SDS011;48240;52.962;5.790;2023-11-22T10:15:14;5.82;;;2.70;;
62256;SDS011;48240;52.962;5.790;2023-11-22T10:17:47;3.70;;;2.42;;
62256;SDS011;48240;52.962;5.790;2023-11-22T10:20:14;4.60;;;2.60;;
62256;SDS011;48240;52.962;5.790;2023-11-22T10:22:46;3.70;;;2.58;;
62256;SDS011;48240;52.962;5.790;2023-11-22T10:25:13;6.78;;;3.38;;
62256;SDS011;48240;52.962;5.790;2023-11-22T10:27:43;3.42;;;2.63;;
62256;SDS011;48240;52.962;5.790;2023-11-22T10:30:10;3.38;;;2.28;;
62256;SDS011;48240;52.962;5.790;2023-11-22T10:32:37;3.72;;;2.55;;
62256;SDS011;48240;52.962;5.790;2023-11-22T10:35:06;4.45;;;2.72;;
62256;SDS011;48240;52.962;5.790;2023-11-22T10:37:33;3.90;;;2.85;;
62256;SDS011;48240;52.962;5.790;2023-11-22T10:39:59;5.22;;;2.70;;
62256;SDS011;48240;52.962;5.790;2023-11-22T10:42:25;4.28;;;2.88;;
62256;SDS011;48240;52.962;5.790;2023-11-22T10:44:55;3.45;;;2.47;;
62256;SDS011;48240;52.962;5.790;2023-11-22T10:47:22;3.53;;;2.58;;
62256;SDS011;48240;52.962;5.790;2023-11-22T10:49:48;5.00;;;2.70;;
62256;SDS011;48240;52.962;5.790;2023-11-22T10:52:14;3.17;;;2.63;;
62256;SDS011;48240;52.962;5.790;2023-11-22T10:54:44;3.28;;;2.75;;
62256;SDS011;48240;52.962;5.790;2023-11-22T10:57:10;3.55;;;2.50;;
62256;SDS011;48240;52.962;5.790;2023-11-22T10:59:37;3.35;;;2.40;;
62256;SDS011;48240;52.962;5.790;2023-11-22T11:02:10;4.05;;;2.50;;
62256;SDS011;48240;52.962;5.790;2023-11-22T11:04:42;3.22;;;2.42;;
62256;SDS011;48240;52.962;5.790;2023-11-22T11:07:12;3.70;;;2.83;;
62256;SDS011;48240;52.962;5.790;2023-11-22T11:09:40;4.53;;;2.72;;
62256;SDS011;48240;52.962;5.790;2023-11-22T11:12:07;3.65;;;2.67;;
62256;SDS011;48240;52.962;5.790;2023-11-22T11:14:33;5.18;;;2.63;;
62256;SDS011;48240;52.962;5.790;2023-11-22T11:16:59;4.30;;;2.67;;
62256;SDS011;48240;52.962;5.790;2023-11-22T11:19:25;3.47;;;2.35;;
62256;SDS011;48240;52.962;5.790;2023-11-22T11:21:54;3.33;;;2.55;;
62256;SDS011;48240;52.962;5.790;2023-11-22T11:24:23;3.97;;;2.78;;
62256;SDS011;48240;52.962;5.790;2023-11-22T11:26:50;3.90;;;2.50;;
62256;SDS011;48240;52.962;5.790;2023-11-22T11:29:34;4.53;;;2.70;;
62256;SDS011;48240;52.962;5.790;2023-11-22T11:32:02;3.78;;;2.70;;
62256;SDS011;48240;52.962;5.790;2023-11-22T11:34:28;3.83;;;2.88;;
62256;SDS011;48240;52.962;5.790;2023-11-22T11:36:55;4.70;;;2.60;;
62256;SDS011;48240;52.962;5.790;2023-11-22T11:39:26;3.17;;;2.47;;
62256;SDS011;48240;52.962;5.790;2023-11-22T11:42:09;5.05;;;2.90;;
62256;SDS011;48240;52.962;5.790;2023-11-22T11:44:35;4.15;;;2.55;;
62256;SDS011;48240;52.962;5.790;2023-11-22T11:47:11;4.55;;;2.70;;
62256;SDS011;48240;52.962;5.790;2023-11-22T11:49:37;3.42;;;2.72;;
62256;SDS011;48240;52.962;5.790;2023-11-22T11:52:04;4.38;;;2.97;;
62256;SDS011;48240;52.962;5.790;2023-11-22T11:54:30;4.07;;;2.22;;
62256;SDS011;48240;52.962;5.790;2023-11-22T11:57:00;4.82;;;3.15;;
62256;SDS011;48240;52.962;5.790;2023-11-22T11:59:26;8.20;;;2.92;;
62256;SDS011;48240;52.962;5.790;2023-11-22T12:01:53;6.55;;;3.40;;
62256;SDS011;48240;52.962;5.790;2023-11-22T12:04:22;4.72;;;3.28;;
62256;SDS011;48240;52.962;5.790;2023-11-22T12:06:48;5.45;;;3.30;;
62256;SDS011;48240;52.962;5.790;2023-11-22T12:09:21;6.15;;;3.65;;
62256;SDS011;48240;52.962;5.790;2023-11-22T12:11:49;5.68;;;3.38;;
62256;SDS011;48240;52.962;5.790;2023-11-22T12:14:15;6.70;;;3.58;;
62256;SDS011;48240;52.962;5.790;2023-11-22T12:16:42;5.05;;;3.22;;
62256;SDS011;48240;52.962;5.790;2023-11-22T12:19:20;7.30;;;4.00;;
62256;SDS011;48240;52.962;5.790;2023-11-22T12:21:47;5.72;;;3.80;;
62256;SDS011;48240;52.962;5.790;2023-11-22T12:24:13;4.55;;;3.15;;
62256;SDS011;48240;52.962;5.790;2023-11-22T12:26:40;5.85;;;3.30;;
62256;SDS011;48240;52.962;5.790;2023-11-22T12:29:06;7.10;;;3.35;;
62256;SDS011;48240;52.962;5.790;2023-11-22T12:31:34;6.57;;;3.05;;
62256;SDS011;48240;52.962;5.790;2023-11-22T12:34:00;4.78;;;3.10;;
62256;SDS011;48240;52.962;5.790;2023-11-22T12:36:27;5.80;;;3.17;;
62256;SDS011;48240;52.962;5.790;2023-11-22T12:38:54;4.50;;;3.00;;
62256;SDS011;48240;52.962;5.790;2023-11-22T12:41:23;5.05;;;3.35;;
62256;SDS011;48240;52.962;5.790;2023-11-22T12:44:05;4.07;;;3.20;;
62256;SDS011;48240;52.962;5.790;2023-11-22T12:46:50;4.25;;;3.15;;
62256;SDS011;48240;52.962;5.790;2023-11-22T12:49:22;4.70;;;2.93;;
62256;SDS011;48240;52.962;5.790;2023-11-22T12:51:49;5.82;;;3.42;;
62256;SDS011;48240;52.962;5.790;2023-11-22T12:54:15;3.95;;;2.95;;
62256;SDS011;48240;52.962;5.790;2023-11-22T12:56:42;4.75;;;3.00;;
62256;SDS011;48240;52.962;5.790;2023-11-22T12:59:08;4.28;;;2.90;;
62256;SDS011;48240;52.962;5.790;2023-11-22T13:01:35;3.65;;;3.03;;
62256;SDS011;48240;52.962;5.790;2023-11-22T13:04:01;5.75;;;3.28;;
62256;SDS011;48240;52.962;5.790;2023-11-22T13:06:28;4.35;;;3.00;;
62256;SDS011;48240;52.962;5.790;2023-11-22T13:08:54;4.72;;;3.00;;
62256;SDS011;48240;52.962;5.790;2023-11-22T13:11:21;4.68;;;3.17;;
62256;SDS011;48240;52.962;5.790;2023-11-22T13:13:47;4.68;;;3.03;;
62256;SDS011;48240;52.962;5.790;2023-11-22T13:16:13;4.32;;;3.35;;
62256;SDS011;48240;52.962;5.790;2023-11-22T13:18:41;4.72;;;2.97;;
62256;SDS011;48240;52.962;5.790;2023-11-22T13:21:07;4.38;;;3.03;;
62256;SDS011;48240;52.962;5.790;2023-11-22T13:23:33;4.57;;;3.33;;
62256;SDS011;48240;52.962;5.790;2023-11-22T13:25:59;4.47;;;2.95;;
62256;SDS011;48240;52.962;5.790;2023-11-22T13:28:26;4.40;;;3.05;;
62256;SDS011;48240;52.962;5.790;2023-11-22T13:30:53;4.35;;;3.13;;
62256;SDS011;48240;52.962;5.790;2023-11-22T13:33:19;4.10;;;2.83;;
62256;SDS011;48240;52.962;5.790;2023-11-22T13:35:45;4.95;;;3.20;;
62256;SDS011;48240;52.962;5.790;2023-11-22T13:38:12;5.20;;;3.47;;
62256;SDS011;48240;52.962;5.790;2023-11-22T13:40:39;4.38;;;2.80;;
62256;SDS011;48240;52.962;5.790;2023-11-22T13:43:05;4.38;;;3.25;;
62256;SDS011;48240;52.962;5.790;2023-11-22T13:45:32;3.83;;;2.88;;
62256;SDS011;48240;52.962;5.790;2023-11-22T13:48:01;3.75;;;3.05;;
62256;SDS011;48240;52.962;5.790;2023-11-22T13:50:31;4.05;;;3.20;;
62256;SDS011;48240;52.962;5.790;2023-11-22T13:52:58;5.88;;;3.30;;
62256;SDS011;48240;52.962;5.790;2023-11-22T13:55:24;4.40;;;3.47;;
62256;SDS011;48240;52.962;5.790;2023-11-22T13:57:54;4.30;;;3.15;;
62256;SDS011;48240;52.962;5.790;2023-11-22T14:00:21;5.65;;;3.08;;
62256;SDS011;48240;52.962;5.790;2023-11-22T14:02:49;4.82;;;3.17;;
62256;SDS011;48240;52.962;5.790;2023-11-22T14:05:21;5.20;;;3.20;;
62256;SDS011;48240;52.962;5.790;2023-11-22T14:07:47;4.43;;;3.03;;
62256;SDS011;48240;52.962;5.790;2023-11-22T14:10:13;5.30;;;3.40;;
62256;SDS011;48240;52.962;5.790;2023-11-22T14:12:41;5.30;;;3.28;;
62256;SDS011;48240;52.962;5.790;2023-11-22T14:15:08;5.30;;;3.30;;
62256;SDS011;48240;52.962;5.790;2023-11-22T14:17:35;4.40;;;3.22;;
62256;SDS011;48240;52.962;5.790;2023-11-22T14:20:04;4.78;;;3.25;;
62256;SDS011;48240;52.962;5.790;2023-11-22T14:22:32;5.15;;;3.67;;
62256;SDS011;48240;52.962;5.790;2023-11-22T14:24:58;4.43;;;3.10;;
62256;SDS011;48240;52.962;5.790;2023-11-22T14:27:24;4.32;;;3.15;;
62256;SDS011;48240;52.962;5.790;2023-11-22T14:29:53;5.45;;;3.35;;
62256;SDS011;48240;52.962;5.790;2023-11-22T14:32:19;4.60;;;3.25;;
62256;SDS011;48240;52.962;5.790;2023-11-22T14:34:46;3.58;;;2.72;;
62256;SDS011;48240;52.962;5.790;2023-11-22T14:37:12;3.65;;;2.60;;
62256;SDS011;48240;52.962;5.790;2023-11-22T14:39:39;5.20;;;3.10;;
62256;SDS011;48240;52.962;5.790;2023-11-22T14:42:05;5.15;;;3.25;;
62256;SDS011;48240;52.962;5.790;2023-11-22T14:44:32;3.70;;;2.67;;
62256;SDS011;48240;52.962;5.790;2023-11-22T14:46:59;4.80;;;2.80;;
62256;SDS011;48240;52.962;5.790;2023-11-22T14:49:27;6.05;;;3.53;;
62256;SDS011;48240;52.962;5.790;2023-11-22T14:51:53;5.20;;;3.03;;
62256;SDS011;48240;52.962;5.790;2023-11-22T14:54:21;6.03;;;3.20;;
62256;SDS011;48240;52.962;5.790;2023-11-22T14:56:47;4.82;;;3.63;;
62256;SDS011;48240;52.962;5.790;2023-11-22T14:59:14;4.57;;;3.67;;
62256;SDS011;48240;52.962;5.790;2023-11-22T15:01:42;3.53;;;2.78;;
62256;SDS011;48240;52.962;5.790;2023-11-22T15:04:10;4.70;;;3.35;;
62256;SDS011;48240;52.962;5.790;2023-11-22T15:06:37;4.97;;;3.47;;
62256;SDS011;48240;52.962;5.790;2023-11-22T15:09:03;3.92;;;2.80;;
62256;SDS011;48240;52.962;5.790;2023-11-22T15:11:35;4.85;;;2.90;;
62256;SDS011;48240;52.962;5.790;2023-11-22T15:14:02;5.43;;;3.28;;
62256;SDS011;48240;52.962;5.790;2023-11-22T15:16:28;4.57;;;3.50;;
62256;SDS011;48240;52.962;5.790;2023-11-22T15:18:56;5.35;;;3.40;;
62256;SDS011;48240;52.962;5.790;2023-11-22T15:21:22;3.92;;;2.88;;
62256;SDS011;48240;52.962;5.790;2023-11-22T15:23:48;6.50;;;3.08;;
62256;SDS011;48240;52.962;5.790;2023-11-22T15:26:14;5.18;;;3.22;;
62256;SDS011;48240;52.962;5.790;2023-11-22T15:28:40;4.32;;;3.25;;
62256;SDS011;48240;52.962;5.790;2023-11-22T15:31:06;3.92;;;2.75;;
62256;SDS011;48240;52.962;5.790;2023-11-22T15:33:37;3.40;;;2.67;;
62256;SDS011;48240;52.962;5.790;2023-11-22T15:36:05;3.85;;;2.80;;
62256;SDS011;48240;52.962;5.790;2023-11-22T15:38:31;4.25;;;3.35;;
62256;SDS011;48240;52.962;5.790;2023-11-22T15:40:57;3.70;;;2.80;;
62256;SDS011;48240;52.962;5.790;2023-11-22T15:43:24;3.55;;;2.53;;
62256;SDS011;48240;52.962;5.790;2023-11-22T15:45:52;3.88;;;2.80;;
62256;SDS011;48240;52.962;5.790;2023-11-22T15:48:19;5.68;;;3.30;;
62256;SDS011;48240;52.962;5.790;2023-11-22T15:50:45;3.45;;;2.60;;
62256;SDS011;48240;52.962;5.790;2023-11-22T15:53:12;3.70;;;2.92;;
62256;SDS011;48240;52.962;5.790;2023-11-22T15:55:41;3.58;;;2.90;;
62256;SDS011;48240;52.962;5.790;2023-11-22T15:58:09;4.85;;;2.63;;
62256;SDS011;48240;52.962;5.790;2023-11-22T16:00:35;5.07;;;3.03;;
62256;SDS011;48240;52.962;5.790;2023-11-22T16:03:01;3.53;;;2.92;;
62256;SDS011;48240;52.962;5.790;2023-11-22T16:05:30;3.90;;;2.85;;
62256;SDS011;48240;52.962;5.790;2023-11-22T16:07:56;3.80;;;3.20;;
62256;SDS011;48240;52.962;5.790;2023-11-22T16:10:23;4.82;;;3.00;;
62256;SDS011;48240;52.962;5.790;2023-11-22T16:12:49;4.70;;;3.67;;
62256;SDS011;48240;52.962;5.790;2023-11-22T16:15:16;4.38;;;3.40;;
62256;SDS011;48240;52.962;5.790;2023-11-22T16:17:43;4.05;;;3.17;;
62256;SDS011;48240;52.962;5.790;2023-11-22T16:20:09;5.07;;;2.90;;
62256;SDS011;48240;52.962;5.790;2023-11-22T16:22:39;4.00;;;2.97;;
62256;SDS011;48240;52.962;5.790;2023-11-22T16:25:14;4.38;;;2.97;;
62256;SDS011;48240;52.962;5.790;2023-11-22T16:27:47;5.90;;;3.50;;
62256;SDS011;48240;52.962;5.790;2023-11-22T16:30:13;5.25;;;3.55;;
62256;SDS011;48240;52.962;5.790;2023-11-22T16:32:39;2.95;;;2.65;;
62256;SDS011;48240;52.962;5.790;2023-11-22T16:35:06;3.47;;;2.88;;
62256;SDS011;48240;52.962;5.790;2023-11-22T16:37:33;4.97;;;3.17;;
62256;SDS011;48240;52.962;5.790;2023-11-22T16:39:59;3.65;;;3.00;;
62256;SDS011;48240;52.962;5.790;2023-11-22T16:42:33;5.22;;;3.20;;
62256;SDS011;48240;52.962;5.790;2023-11-22T16:44:59;5.60;;;3.22;;
62256;SDS011;48240;52.962;5.790;2023-11-22T16:47:25;3.70;;;2.72;;
62256;SDS011;48240;52.962;5.790;2023-11-22T16:49:51;4.22;;;2.75;;
62256;SDS011;48240;52.962;5.790;2023-11-22T16:52:17;4.60;;;3.65;;
62256;SDS011;48240;52.962;5.790;2023-11-22T16:54:44;4.63;;;3.45;;
62256;SDS011;48240;52.962;5.790;2023-11-22T16:57:10;7.53;;;3.45;;
62256;SDS011;48240;52.962;5.790;2023-11-22T16:59:37;3.80;;;2.72;;
62256;SDS011;48240;52.962;5.790;2023-11-22T17:02:04;5.63;;;3.40;;
62256;SDS011;48240;52.962;5.790;2023-11-22T17:04:31;3.47;;;2.65;;
62256;SDS011;48240;52.962;5.790;2023-11-22T17:06:57;5.57;;;3.03;;
62256;SDS011;48240;52.962;5.790;2023-11-22T17:09:24;3.60;;;2.85;;
62256;SDS011;48240;52.962;5.790;2023-11-22T17:11:50;5.63;;;3.63;;
62256;SDS011;48240;52.962;5.790;2023-11-22T17:14:16;3.85;;;2.88;;
62256;SDS011;48240;52.962;5.790;2023-11-22T17:16:43;4.18;;;2.85;;
62256;SDS011;48240;52.962;5.790;2023-11-22T17:19:09;3.83;;;2.90;;
62256;SDS011;48240;52.962;5.790;2023-11-22T17:21:35;6.45;;;2.90;;
62256;SDS011;48240;52.962;5.790;2023-11-22T17:24:01;5.10;;;3.08;;
62256;SDS011;48240;52.962;5.790;2023-11-22T17:26:30;4.00;;;3.05;;
62256;SDS011;48240;52.962;5.790;2023-11-22T17:28:57;5.68;;;3.65;;
62256;SDS011;48240;52.962;5.790;2023-11-22T17:31:23;12.55;;;3.60;;
62256;SDS011;48240;52.962;5.790;2023-11-22T17:33:49;5.05;;;3.38;;
62256;SDS011;48240;52.962;5.790;2023-11-22T17:36:15;5.00;;;2.83;;
62256;SDS011;48240;52.962;5.790;2023-11-22T17:38:42;6.70;;;3.50;;
62256;SDS011;48240;52.962;5.790;2023-11-22T17:41:12;6.00;;;3.80;;
62256;SDS011;48240;52.962;5.790;2023-11-22T17:43:38;3.17;;;2.65;;
62256;SDS011;48240;52.962;5.790;2023-11-22T17:46:04;4.13;;;2.97;;
62256;SDS011;48240;52.962;5.790;2023-11-22T17:48:32;4.35;;;3.40;;
62256;SDS011;48240;52.962;5.790;2023-11-22T17:51:00;7.03;;;3.25;;
62256;SDS011;48240;52.962;5.790;2023-11-22T17:53:26;8.00;;;3.25;;
62256;SDS011;48240;52.962;5.790;2023-11-22T17:55:53;6.13;;;3.90;;
62256;SDS011;48240;52.962;5.790;2023-11-22T17:58:20;6.07;;;4.78;;
62256;SDS011;48240;52.962;5.790;2023-11-22T18:00:46;6.40;;;4.05;;
62256;SDS011;48240;52.962;5.790;2023-11-22T18:03:12;7.72;;;5.53;;
62256;SDS011;48240;52.962;5.790;2023-11-22T18:05:38;6.78;;;5.15;;
62256;SDS011;48240;52.962;5.790;2023-11-22T18:08:04;11.00;;;4.72;;
62256;SDS011;48240;52.962;5.790;2023-11-22T18:10:30;7.15;;;5.30;;
62256;SDS011;48240;52.962;5.790;2023-11-22T18:12:58;9.45;;;6.22;;
62256;SDS011;48240;52.962;5.790;2023-11-22T18:15:24;6.57;;;4.95;;
62256;SDS011;48240;52.962;5.790;2023-11-22T18:17:51;7.75;;;5.53;;
62256;SDS011;48240;52.962;5.790;2023-11-22T18:20:17;10.07;;;6.30;;
62256;SDS011;48240;52.962;5.790;2023-11-22T18:22:43;9.88;;;5.43;;
62256;SDS011;48240;52.962;5.790;2023-11-22T18:25:10;8.02;;;5.88;;
62256;SDS011;48240;52.962;5.790;2023-11-22T18:27:36;12.73;;;7.47;;
62256;SDS011;48240;52.962;5.790;2023-11-22T18:30:03;7.93;;;6.07;;
62256;SDS011;48240;52.962;5.790;2023-11-22T18:32:31;10.30;;;6.57;;
62256;SDS011;48240;52.962;5.790;2023-11-22T18:34:57;9.68;;;6.82;;
62256;SDS011;48240;52.962;5.790;2023-11-22T18:37:24;11.45;;;6.72;;
62256;SDS011;48240;52.962;5.790;2023-11-22T18:39:50;8.55;;;6.32;;
62256;SDS011;48240;52.962;5.790;2023-11-22T18:42:22;11.07;;;6.78;;